Time;durP1;ratioP1;P1;durP2;ratioP2;P2;SDS_P1;SDS_P2;PMS_P1;PMS_P2;Temp;Humidity;BMP_temperature;BMP_pressure;BME280_temperature;BME280_humidity;BME280_pressure;Samples;Min_cycle;Max_cycle;Signal;HPM_P1;HPM_P2
2021/05/20 00:00:24;;;;;;;0.70;0.70;;;;;;;-144.31;100.00;58022.63;5089084;28;20035;-76
2021/05/20 00:02:51;;;;;;;0.63;0.63;;;;;;;-144.31;100.00;58022.63;5078569;28;20637;-76
2021/05/20 00:05:20;;;;;;;0.60;0.60;;;;;;;-144.31;100.00;58022.63;5086965;28;20560;-75
2021/05/20 00:07:46;;;;;;;0.70;0.70;;;;;;;-144.31;100.00;58022.63;5087953;28;20085;-75
2021/05/20 00:10:15;;;;;;;0.60;0.60;;;;;;;-144.31;100.00;58022.63;5088030;28;20020;-75
2021/05/20 00:12:43;;;;;;;0.60;0.60;;;;;;;-144.31;100.00;58022.63;5085990;28;20372;-76
2021/05/20 00:15:08;;;;;;;0.60;0.60;;;;;;;-144.31;100.00;58022.63;5088873;28;20505;-76
2021/05/20 00:17:34;;;;;;;0.60;0.60;;;;;;;-144.31;100.00;58022.63;5087024;28;20028;-76
2021/05/20 00:20:00;;;;;;;0.70;0.70;;;;;;;-144.31;100.00;58022.63;5088116;28;20505;-75
2021/05/20 00:22:25;;;;;;;0.60;0.60;;;;;;;-144.31;100.00;58022.63;5087096;28;20123;-76
2021/05/20 00:24:53;;;;;;;0.60;0.60;;;;;;;-144.31;100.00;58022.63;5086085;28;20442;-76
2021/05/20 00:27:18;;;;;;;;;;;;;;;-144.31;100.00;58022.63;5086911;28;20053;-76
2021/05/20 00:29:44;;;;;;;0.65;0.65;;;;;;;-144.31;100.00;58022.63;5088223;28;19916;-75
2021/05/20 00:32:09;;;;;;;0.68;0.68;;;;;;;-144.31;100.00;58022.63;5087237;28;20034;-75
2021/05/20 00:34:37;;;;;;;0.60;0.60;;;;;;;-144.31;100.00;58022.63;5088290;28;20024;-75
2021/05/20 00:37:02;;;;;;;;;;;;;;;-144.31;100.00;58022.63;5089246;28;20447;-75
2021/05/20 00:39:27;;;;;;;0.73;0.73;;;;;;;-144.31;100.00;58022.63;5087573;28;20393;-75
2021/05/20 00:41:53;;;;;;;0.70;0.70;;;;;;;-144.31;100.00;58022.63;5086898;28;20027;-75
2021/05/20 00:44:18;;;;;;;0.70;0.70;;;;;;;-144.31;100.00;58022.63;5086254;28;20584;-75
2021/05/20 00:46:43;;;;;;;0.70;0.70;;;;;;;-144.31;100.00;58022.63;5084407;28;20051;-75
2021/05/20 00:49:12;;;;;;;0.70;0.70;;;;;;;-144.31;100.00;58022.63;5099996;28;20151;-75
2021/05/20 00:51:42;;;;;;;0.70;0.70;;;;;;;-144.31;100.00;58022.63;5087259;28;20403;-75
2021/05/20 00:54:08;;;;;;;0.70;0.70;;;;;;;-144.31;100.00;58022.63;5089289;28;20032;-77
2021/05/20 00:56:40;;;;;;;0.70;0.70;;;;;;;-144.31;100.00;58022.63;5091501;28;20031;-75
2021/05/20 00:59:06;;;;;;;0.70;0.70;;;;;;;-144.31;100.00;58022.63;5089818;28;20111;-75
2021/05/20 01:01:33;;;;;;;0.70;0.70;;;;;;;-144.31;100.00;58022.63;5091872;28;20103;-75
2021/05/20 01:03:59;;;;;;;0.68;0.68;;;;;;;-144.31;100.00;58022.63;5088999;28;20032;-75
2021/05/20 01:06:24;;;;;;;0.80;0.80;;;;;;;-144.31;100.00;58022.63;5092096;28;20038;-75
2021/05/20 01:08:49;;;;;;;0.70;0.70;;;;;;;-144.31;100.00;58022.63;5088973;28;20111;-75
2021/05/20 01:11:15;;;;;;;0.82;0.82;;;;;;;-144.31;100.00;58022.63;5090902;28;20081;-75
2021/05/20 01:13:40;;;;;;;0.70;0.70;;;;;;;-144.31;100.00;58022.63;5091576;28;20407;-75
2021/05/20 01:16:10;;;;;;;0.70;0.70;;;;;;;-144.31;100.00;58022.63;5091428;28;20475;-76
2021/05/20 01:18:38;;;;;;;0.70;0.70;;;;;;;-144.31;100.00;58022.63;5091800;28;20028;-75
2021/05/20 01:21:03;;;;;;;;;;;;;;;-144.31;100.00;58022.63;5092346;28;20173;-74
2021/05/20 01:23:28;;;;;;;0.60;0.60;;;;;;;-144.31;100.00;58022.63;5091528;28;20384;-75
2021/05/20 01:25:54;;;;;;;0.70;0.70;;;;;;;-144.31;100.00;58022.63;5090261;28;20429;-75
2021/05/20 01:28:25;;;;;;;0.60;0.60;;;;;;;-144.31;100.00;58022.63;5089920;28;20024;-74
2021/05/20 01:30:51;;;;;;;0.70;0.70;;;;;;;-144.31;100.00;58022.63;5089228;28;20058;-75
2021/05/20 01:33:19;;;;;;;0.70;0.70;;;;;;;-144.31;100.00;58022.63;5091637;28;20032;-75
2021/05/20 01:35:47;;;;;;;0.70;0.70;;;;;;;-144.31;100.00;58022.63;5089838;28;20577;-75
2021/05/20 01:41:10;;;;;;;0.60;0.60;;;;;;;-144.31;100.00;58022.63;5091014;28;20482;-74
2021/05/20 01:43:38;;;;;;;0.70;0.70;;;;;;;-144.31;100.00;58022.63;5091001;28;20139;-75
2021/05/20 01:46:05;;;;;;;0.60;0.60;;;;;;;-144.31;100.00;58022.63;5089213;28;20088;-75
2021/05/20 01:48:35;;;;;;;0.70;0.70;;;;;;;-144.31;100.00;58022.63;5089468;28;20027;-75
2021/05/20 01:51:07;;;;;;;0.70;0.70;;;;;;;-144.31;100.00;58022.63;5091353;28;20028;-75
2021/05/20 01:53:33;;;;;;;0.70;0.70;;;;;;;-144.31;100.00;58022.63;5089051;28;20028;-75
2021/05/20 01:56:00;;;;;;;0.60;0.60;;;;;;;-144.31;100.00;58022.63;5091141;28;20023;-75
2021/05/20 01:58:27;;;;;;;0.70;0.70;;;;;;;-144.31;100.00;58022.63;5090790;28;20359;-75
2021/05/20 02:00:53;;;;;;;;;;;;;;;-144.31;100.00;58022.63;5089716;28;20032;-75
2021/05/20 02:03:19;;;;;;;0.70;0.70;;;;;;;-144.31;100.00;58022.63;5089921;28;19908;-75
2021/05/20 02:05:47;;;;;;;0.70;0.70;;;;;;;-144.31;100.00;58022.63;5089439;28;20027;-74
2021/05/20 02:08:13;;;;;;;0.70;0.70;;;;;;;-144.31;100.00;58022.63;5090249;28;20036;-75
2021/05/20 02:10:39;;;;;;;0.68;0.68;;;;;;;-144.31;100.00;58022.63;5089112;28;20026;-75
2021/05/20 02:13:05;;;;;;;0.70;0.70;;;;;;;-144.31;100.00;58022.63;5090526;28;20096;-75
2021/05/20 02:15:31;;;;;;;0.70;0.70;;;;;;;-144.31;100.00;58022.63;5090520;28;20043;-75
2021/05/20 02:17:57;;;;;;;0.70;0.70;;;;;;;-144.31;100.00;58022.63;5088931;28;20514;-75
2021/05/20 02:20:22;;;;;;;0.60;0.60;;;;;;;-144.31;100.00;58022.63;5089398;28;20123;-75
2021/05/20 02:22:51;;;;;;;0.60;0.60;;;;;;;-144.31;100.00;58022.63;5089827;28;20039;-75
2021/05/20 02:25:20;;;;;;;0.70;0.70;;;;;;;-144.31;100.00;58022.63;5090340;28;20028;-75
2021/05/20 02:27:48;;;;;;;0.60;0.60;;;;;;;-144.31;100.00;58022.63;5090192;28;20028;-75
2021/05/20 02:30:15;;;;;;;0.70;0.70;;;;;;;-144.31;100.00;58022.63;5090236;28;20032;-75
2021/05/20 02:32:41;;;;;;;0.70;0.70;;;;;;;-144.31;100.00;58022.63;5089617;28;20055;-75
2021/05/20 02:35:08;;;;;;;0.70;0.70;;;;;;;-144.31;100.00;58022.63;5088979;28;20063;-75
2021/05/20 02:37:34;;;;;;;0.60;0.60;;;;;;;-144.31;100.00;58022.63;5089394;28;20074;-75
2021/05/20 02:40:00;;;;;;;0.70;0.70;;;;;;;-144.31;100.00;58022.63;5088459;28;20055;-75
2021/05/20 02:42:26;;;;;;;0.70;0.70;;;;;;;-144.31;100.00;58022.63;5088549;28;20112;-75
2021/05/20 02:44:51;;;;;;;0.70;0.70;;;;;;;-144.31;100.00;58022.63;5089350;28;20058;-75
2021/05/20 02:47:17;;;;;;;0.68;0.68;;;;;;;-144.31;100.00;58022.63;5092741;28;20050;-75
2021/05/20 02:49:43;;;;;;;0.60;0.60;;;;;;;-144.31;100.00;58022.63;5090058;28;20036;-74
2021/05/20 02:52:09;;;;;;;0.70;0.70;;;;;;;-144.31;100.00;58022.63;5089543;28;20228;-74
2021/05/20 02:54:35;;;;;;;0.60;0.60;;;;;;;-144.31;100.00;58022.63;5088631;28;20032;-75
2021/05/20 02:57:01;;;;;;;0.70;0.70;;;;;;;-144.31;100.00;58022.63;5087697;28;20028;-75
2021/05/20 02:59:27;;;;;;;0.60;0.60;;;;;;;-144.31;100.00;58022.63;5089863;28;20027;-75
2021/05/20 03:01:52;;;;;;;0.60;0.60;;;;;;;-144.31;100.00;58022.63;5088266;28;20020;-76
2021/05/20 03:04:17;;;;;;;0.60;0.60;;;;;;;-144.31;100.00;58022.63;5089980;28;20372;-76
2021/05/20 03:06:45;;;;;;;0.60;0.60;;;;;;;-144.31;100.00;58022.63;5089235;28;20039;-74
2021/05/20 03:09:11;;;;;;;;;;;;;;;-144.31;100.00;58022.63;5088561;28;20024;-74
2021/05/20 03:11:36;;;;;;;0.70;0.70;;;;;;;-144.31;100.00;58022.63;5089481;28;19915;-74
2021/05/20 03:14:04;;;;;;;0.70;0.70;;;;;;;-144.31;100.00;58022.63;5088908;28;20043;-74
2021/05/20 03:16:32;;;;;;;0.68;0.68;;;;;;;-144.31;100.00;58022.63;5081255;28;20032;-76
2021/05/20 03:18:57;;;;;;;;;;;;;;;-144.31;100.00;58022.63;5099062;28;20016;-75
2021/05/20 03:21:26;;;;;;;0.80;0.80;;;;;;;-144.31;100.00;58022.63;5088633;28;19922;-74
2021/05/20 03:23:52;;;;;;;0.70;0.70;;;;;;;-144.31;100.00;58022.63;5087862;28;20456;-74
2021/05/20 03:26:17;;;;;;;0.68;0.68;;;;;;;-144.31;100.00;58022.63;5088888;28;20371;-75
2021/05/20 03:28:43;;;;;;;0.70;0.70;;;;;;;-144.31;100.00;58022.63;5087537;28;20486;-74
2021/05/20 03:31:10;;;;;;;0.70;0.70;;;;;;;-144.31;100.00;58022.63;5088483;28;20063;-74
2021/05/20 03:33:40;;;;;;;;;;;;;;;-144.31;100.00;58022.63;5089416;28;20030;-74
2021/05/20 03:36:06;;;;;;;0.60;0.60;;;;;;;-144.31;100.00;58022.63;5089631;28;20363;-74
2021/05/20 03:38:31;;;;;;;0.68;0.68;;;;;;;-144.31;100.00;58022.63;5089058;28;20031;-74
2021/05/20 03:40:57;;;;;;;0.75;0.75;;;;;;;-144.31;100.00;58022.63;5086719;28;20027;-74
2021/05/20 03:43:23;;;;;;;0.70;0.70;;;;;;;-144.31;100.00;58022.63;5088907;28;20039;-75
2021/05/20 03:45:48;;;;;;;0.63;0.63;;;;;;;-144.31;100.00;58022.63;5082302;28;20420;-75
2021/05/20 03:48:13;;;;;;;0.60;0.60;;;;;;;-144.31;100.00;58022.63;5087158;28;20024;-75
2021/05/20 03:50:41;;;;;;;0.60;0.60;;;;;;;-144.31;100.00;58022.63;5088417;28;20125;-74
2021/05/20 03:53:07;;;;;;;0.70;0.70;;;;;;;-144.31;100.00;58022.63;5087440;28;20313;-75
2021/05/20 03:55:32;;;;;;;0.60;0.60;;;;;;;-144.31;100.00;58022.63;5087214;28;20059;-75
2021/05/20 03:57:57;;;;;;;0.70;0.70;;;;;;;-144.31;100.00;58022.63;5087435;28;20032;-75
2021/05/20 04:00:23;;;;;;;0.70;0.70;;;;;;;-144.31;100.00;58022.63;5087188;28;20023;-75
2021/05/20 04:02:49;;;;;;;0.70;0.70;;;;;;;-144.31;100.00;58022.63;5089026;28;20085;-75
2021/05/20 04:05:15;;;;;;;0.70;0.70;;;;;;;-144.31;100.00;58022.63;5088713;28;20028;-75
2021/05/20 04:07:40;;;;;;;0.60;0.60;;;;;;;-144.31;100.00;58022.63;5088375;28;20029;-75
2021/05/20 04:10:06;;;;;;;0.60;0.60;;;;;;;-144.31;100.00;58022.63;5087165;28;20089;-75
2021/05/20 04:12:32;;;;;;;0.65;0.65;;;;;;;-144.31;100.00;58022.63;5088619;28;20028;-75
2021/05/20 04:14:57;;;;;;;0.60;0.60;;;;;;;-144.31;100.00;58022.63;5084823;28;20028;-75
2021/05/20 04:17:22;;;;;;;0.60;0.60;;;;;;;-144.31;100.00;58022.63;5073423;28;20067;-75
2021/05/20 04:19:50;;;;;;;0.60;0.60;;;;;;;-144.31;100.00;58022.63;5086677;28;20452;-75
2021/05/20 04:22:15;;;;;;;0.60;0.60;;;;;;;-144.31;100.00;58022.63;5088407;28;20032;-75
2021/05/20 04:24:41;;;;;;;0.60;0.60;;;;;;;-144.31;100.00;58022.63;5087154;28;20556;-75
2021/05/20 04:27:06;;;;;;;0.63;0.63;;;;;;;-144.31;100.00;58022.63;5089261;28;20030;-75
2021/05/20 04:29:31;;;;;;;0.57;0.57;;;;;;;-144.31;100.00;58022.63;5091365;28;20023;-75
2021/05/20 04:31:57;;;;;;;0.60;0.60;;;;;;;-144.31;100.00;58022.63;5092150;28;20409;-75
2021/05/20 04:34:22;;;;;;;0.60;0.60;;;;;;;-144.31;100.00;58022.63;5092639;28;20499;-74
2021/05/20 04:36:49;;;;;;;0.60;0.60;;;;;;;-144.31;100.00;58022.63;5090938;28;20364;-75
2021/05/20 04:39:14;;;;;;;0.50;0.50;;;;;;;-144.31;100.00;58022.63;5091377;28;20020;-74
2021/05/20 04:41:40;;;;;;;0.50;0.50;;;;;;;-144.31;100.00;58022.63;5091156;28;20081;-75
2021/05/20 04:44:09;;;;;;;0.60;0.60;;;;;;;-144.31;100.00;58022.63;5092230;28;20518;-75
2021/05/20 04:46:34;;;;;;;0.50;0.50;;;;;;;-144.31;100.00;58022.63;5083606;28;20047;-73
2021/05/20 04:49:02;;;;;;;0.50;0.50;;;;;;;-144.31;100.00;58022.63;5090176;28;20083;-75
2021/05/20 04:51:27;;;;;;;0.60;0.60;;;;;;;-144.31;100.00;58022.63;5091064;28;20059;-75
2021/05/20 04:53:53;;;;;;;0.57;0.57;;;;;;;-144.31;100.00;58022.63;5090141;28;20075;-74
2021/05/20 04:56:22;;;;;;;0.50;0.50;;;;;;;-144.31;100.00;58022.63;5090498;28;20063;-75
2021/05/20 04:58:51;;;;;;;0.50;0.50;;;;;;;-144.31;100.00;58022.63;5091592;28;20106;-74
2021/05/20 05:01:17;;;;;;;0.60;0.60;;;;;;;-144.31;100.00;58022.63;5090366;28;20586;-74
2021/05/20 05:03:42;;;;;;;0.60;0.60;;;;;;;-144.31;100.00;58022.63;5090643;28;20123;-77
2021/05/20 05:06:07;;;;;;;0.50;0.50;;;;;;;-144.31;100.00;58022.63;5087505;28;20499;-77
2021/05/20 05:08:35;;;;;;;0.52;0.52;;;;;;;-144.31;100.00;58022.63;5091282;28;20036;-76
2021/05/20 05:11:01;;;;;;;0.60;0.60;;;;;;;-144.31;100.00;58022.63;5089280;28;20024;-75
2021/05/20 05:13:28;;;;;;;0.50;0.50;;;;;;;-144.31;100.00;58022.63;5084667;28;20359;-74
2021/05/20 05:15:55;;;;;;;;;;;;;;;-144.31;100.00;58022.63;5088641;28;20031;-76
2021/05/20 05:18:21;;;;;;;;;;;;;;;-144.31;100.00;58022.63;5091169;28;20488;-76
2021/05/20 05:20:46;;;;;;;0.60;0.60;;;;;;;-144.31;100.00;58022.63;5091661;28;19919;-74
2021/05/20 05:23:14;;;;;;;0.50;0.50;;;;;;;-144.31;100.00;58022.63;5092689;28;20036;-76
2021/05/20 05:25:39;;;;;;;0.55;0.55;;;;;;;-144.31;100.00;58022.63;5091903;28;20024;-74
2021/05/20 05:28:05;;;;;;;0.50;0.50;;;;;;;-144.31;100.00;58022.63;5091024;28;20024;-74
2021/05/20 05:30:31;;;;;;;0.50;0.50;;;;;;;-144.31;100.00;58022.63;5091508;28;20103;-74
2021/05/20 05:32:56;;;;;;;0.60;0.60;;;;;;;-144.31;100.00;58022.63;5091040;28;20073;-74
2021/05/20 05:35:22;;;;;;;0.60;0.60;;;;;;;-144.31;100.00;58022.63;5091497;28;20032;-74
2021/05/20 05:37:47;;;;;;;0.60;0.60;;;;;;;-144.31;100.00;58022.63;5088524;28;20078;-74
2021/05/20 05:40:13;;;;;;;0.60;0.60;;;;;;;-144.31;100.00;58022.63;5090533;28;20468;-74
2021/05/20 05:42:40;;;;;;;0.60;0.60;;;;;;;-144.31;100.00;58022.63;5089322;28;20106;-74
2021/05/20 05:45:09;;;;;;;0.57;0.57;;;;;;;-144.31;100.00;58022.63;5085789;28;20067;-74
2021/05/20 05:47:35;;;;;;;0.50;0.50;;;;;;;-144.31;100.00;58022.63;5079271;28;20024;-74
2021/05/20 05:50:06;;;;;;;0.52;0.52;;;;;;;-144.31;100.00;58022.63;5089755;28;20386;-74
2021/05/20 05:52:32;;;;;;;0.60;0.60;;;;;;;-144.31;100.00;58022.63;5090771;28;20474;-74
2021/05/20 05:54:58;;;;;;;0.50;0.50;;;;;;;-144.31;100.00;58022.63;5089507;28;20032;-74
2021/05/20 05:57:23;;;;;;;0.50;0.50;;;;;;;-144.31;100.00;58022.63;5085629;28;20024;-76
2021/05/20 05:59:49;;;;;;;0.50;0.50;;;;;;;-144.31;100.00;58022.63;5084727;28;20401;-76
2021/05/20 06:02:21;;;;;;;0.50;0.50;;;;;;;-144.31;100.00;58022.63;5087991;28;20024;-76
2021/05/20 06:04:53;;;;;;;0.52;0.52;;;;;;;-144.31;100.00;58022.63;5089429;28;20663;-76
2021/05/20 06:07:21;;;;;;;0.50;0.50;;;;;;;-144.31;100.00;58022.63;5088099;28;20032;-77
2021/05/20 06:09:47;;;;;;;0.50;0.50;;;;;;;-144.31;100.00;58022.63;5079340;28;20424;-75
2021/05/20 06:12:12;;;;;;;0.50;0.50;;;;;;;-144.31;100.00;58022.63;5078623;28;20116;-75
2021/05/20 06:14:40;;;;;;;0.50;0.50;;;;;;;-144.31;100.00;58022.63;5084419;28;20043;-75
2021/05/20 06:17:06;;;;;;;0.50;0.50;;;;;;;-144.31;100.00;58022.63;5083804;28;20609;-76
2021/05/20 06:19:32;;;;;;;0.60;0.60;;;;;;;-144.31;100.00;58022.63;5085120;28;20032;-75
2021/05/20 06:21:57;;;;;;;0.70;0.70;;;;;;;-144.31;100.00;58022.63;5084849;28;20383;-75
2021/05/20 06:24:23;;;;;;;0.50;0.50;;;;;;;-144.31;100.00;58022.63;5088190;28;20032;-75
2021/05/20 06:26:48;;;;;;;0.60;0.60;;;;;;;-144.31;100.00;58022.63;5080676;28;20510;-79
2021/05/20 06:29:14;;;;;;;0.60;0.60;;;;;;;-144.31;100.00;58022.63;5087914;28;20036;-76
2021/05/20 06:31:39;;;;;;;0.60;0.60;;;;;;;-144.31;100.00;58022.63;5087662;28;20437;-76
2021/05/20 06:34:05;;;;;;;0.60;0.60;;;;;;;-144.31;100.00;58022.63;5090043;28;20055;-76
2021/05/20 06:36:32;;;;;;;0.60;0.60;;;;;;;-144.31;100.00;58022.63;5087793;28;20028;-75
2021/05/20 06:38:58;;;;;;;0.60;0.60;;;;;;;-144.31;100.00;58022.63;5086897;28;20035;-76
2021/05/20 06:41:24;;;;;;;0.50;0.50;;;;;;;-144.31;100.00;58022.63;5088356;28;20032;-76
2021/05/20 06:43:50;;;;;;;0.50;0.50;;;;;;;-144.31;100.00;58022.63;5088741;28;20040;-75
2021/05/20 06:46:15;;;;;;;0.60;0.60;;;;;;;-144.31;100.00;58022.63;5087896;28;20106;-78
2021/05/20 06:48:41;;;;;;;0.63;0.63;;;;;;;-144.31;100.00;58022.63;5091363;28;20039;-78
2021/05/20 06:51:06;;;;;;;0.40;0.40;;;;;;;-144.31;100.00;58022.63;5087833;28;20046;-77
2021/05/20 06:53:36;;;;;;;0.50;0.50;;;;;;;-144.31;100.00;58022.63;5089593;28;20530;-76
2021/05/20 06:56:04;;;;;;;0.50;0.50;;;;;;;-144.31;100.00;58022.63;5086190;28;20077;-77
2021/05/20 07:01:14;;;;;;;0.60;0.60;;;;;;;-144.31;100.00;58022.63;5086680;28;20101;-76
2021/05/20 07:03:46;;;;;;;0.55;0.55;;;;;;;-144.31;100.00;58022.63;5086567;28;20024;-76
2021/05/20 07:06:12;;;;;;;0.50;0.50;;;;;;;-144.31;100.00;58022.63;5084445;28;20498;-77
2021/05/20 07:08:43;;;;;;;0.60;0.60;;;;;;;-144.31;100.00;58022.63;5087086;28;20039;-76
2021/05/20 07:11:09;;;;;;;0.50;0.50;;;;;;;-144.31;100.00;58022.63;5085121;28;20028;-76
2021/05/20 07:13:40;;;;;;;0.45;0.45;;;;;;;-144.31;100.00;58022.63;5087945;28;20036;-77
2021/05/20 07:16:08;;;;;;;0.50;0.50;;;;;;;-144.31;100.00;58022.63;5075510;28;20069;-76
2021/05/20 07:18:35;;;;;;;0.43;0.43;;;;;;;-144.31;100.00;58022.63;5083144;28;20016;-77
2021/05/20 07:21:01;;;;;;;0.50;0.50;;;;;;;-144.31;100.00;58022.63;5083162;28;20103;-78
2021/05/20 07:23:27;;;;;;;0.40;0.40;;;;;;;-144.31;100.00;58022.63;5091712;28;20447;-80
2021/05/20 07:25:55;;;;;;;0.50;0.50;;;;;;;-144.31;100.00;58022.63;5083438;28;20028;-78
2021/05/20 07:28:22;;;;;;;0.50;0.50;;;;;;;-144.31;100.00;58022.63;5089857;28;20050;-79
2021/05/20 07:30:47;;;;;;;0.50;0.50;;;;;;;-144.31;100.00;58022.63;5089799;28;20132;-79
2021/05/20 07:33:13;;;;;;;0.50;0.50;;;;;;;-144.31;100.00;58022.63;5088155;28;20510;-81
2021/05/20 07:35:39;;;;;;;0.50;0.50;;;;;;;-144.31;100.00;58022.63;5088376;28;20020;-80
2021/05/20 07:38:04;;;;;;;0.50;0.50;;;;;;;-144.31;100.00;58022.63;5091261;28;20024;-77
2021/05/20 07:40:32;;;;;;;0.50;0.50;;;;;;;-144.31;100.00;58022.63;5091391;28;20027;-81
2021/05/20 07:42:58;;;;;;;0.50;0.50;;;;;;;-144.31;100.00;58022.63;5094221;28;20020;-77
2021/05/20 07:45:23;;;;;;;0.50;0.50;;;;;;;-144.31;100.00;58022.63;5082644;28;20473;-77
2021/05/20 07:47:51;;;;;;;0.47;0.47;;;;;;;-144.31;100.00;58022.63;5082032;28;20506;-76
2021/05/20 07:50:17;;;;;;;0.40;0.40;;;;;;;-144.31;100.00;58022.63;5080916;28;20475;-76
2021/05/20 07:52:43;;;;;;;0.50;0.50;;;;;;;-144.31;100.00;58022.63;5087762;28;20020;-77
2021/05/20 07:55:09;;;;;;;0.50;0.50;;;;;;;-144.31;100.00;58022.63;5082024;28;20032;-76
2021/05/20 07:57:34;;;;;;;0.47;0.47;;;;;;;-144.31;100.00;58022.63;5085826;28;20065;-76
2021/05/20 08:00:00;;;;;;;0.40;0.40;;;;;;;-144.31;100.00;58022.63;5088053;28;20024;-76
2021/05/20 08:05:06;;;;;;;0.40;0.40;;;;;;;-144.31;100.00;58022.63;5086863;28;20054;-78
2021/05/20 08:07:38;;;;;;;0.40;0.40;;;;;;;-144.31;100.00;58022.63;5087595;28;20032;-77
2021/05/20 08:10:24;;;;;;;0.40;0.40;;;;;;;-144.31;100.00;58022.63;5087281;28;20036;-78
2021/05/20 08:12:57;;;;;;;0.40;0.40;;;;;;;-144.31;100.00;58022.63;5103256;28;20050;-78
2021/05/20 08:15:25;;;;;;;0.40;0.40;;;;;;;-144.31;100.00;58022.63;5101301;28;20106;-76
2021/05/20 08:17:52;;;;;;;0.40;0.40;;;;;;;-144.31;100.00;58022.63;5079640;28;20016;-77
2021/05/20 08:20:17;;;;;;;0.30;0.30;;;;;;;-144.31;100.00;58022.63;5084394;28;20020;-78
2021/05/20 08:22:42;;;;;;;0.40;0.40;;;;;;;-144.31;100.00;58022.63;5085110;28;20046;-75
2021/05/20 08:25:11;;;;;;;0.45;0.45;;;;;;;-144.31;100.00;58022.63;5083094;28;20120;-76
2021/05/20 08:27:36;;;;;;;0.50;0.50;;;;;;;-144.31;100.00;58022.63;5086509;28;20040;-75
2021/05/20 08:30:04;;;;;;;0.40;0.40;;;;;;;-144.31;100.00;58022.63;5084301;28;20032;-77
2021/05/20 08:32:29;;;;;;;;;;;;;;;-144.31;100.00;58022.63;5082700;28;20016;-75
2021/05/20 08:34:54;;;;;;;0.40;0.40;;;;;;;-144.31;100.00;58022.63;5085209;28;19923;-76
2021/05/20 08:37:20;;;;;;;0.60;0.60;;;;;;;-144.31;100.00;58022.63;5086447;28;20050;-78
2021/05/20 08:39:45;;;;;;;0.40;0.40;;;;;;;-144.31;100.00;58022.63;5081723;28;20459;-76
2021/05/20 08:42:13;;;;;;;0.40;0.40;;;;;;;-144.31;100.00;58022.63;5077193;28;20036;-75
2021/05/20 08:44:38;;;;;;;0.30;0.30;;;;;;;-144.31;100.00;58022.63;5084207;28;20629;-77
2021/05/20 08:47:04;;;;;;;0.40;0.40;;;;;;;-144.31;100.00;58022.63;5082790;28;20047;-77
2021/05/20 08:49:29;;;;;;;0.40;0.40;;;;;;;-144.31;100.00;58022.63;5082614;28;20024;-77
2021/05/20 08:51:55;;;;;;;0.40;0.40;;;;;;;-144.31;100.00;58022.63;5082940;28;20458;-77
2021/05/20 08:54:21;;;;;;;0.30;0.30;;;;;;;-144.31;100.00;58022.63;5087699;28;20102;-77
2021/05/20 08:56:51;;;;;;;0.40;0.40;;;;;;;-144.31;100.00;58022.63;5085744;28;20039;-79
2021/05/20 08:59:17;;;;;;;0.30;0.30;;;;;;;-144.31;100.00;58022.63;5083557;28;20473;-78
2021/05/20 09:01:44;;;;;;;0.40;0.40;;;;;;;-144.31;100.00;58022.63;5084112;28;20081;-80
2021/05/20 09:04:10;;;;;;;0.40;0.40;;;;;;;-144.31;100.00;58022.63;5085791;28;20032;-78
2021/05/20 09:06:48;;;;;;;0.40;0.40;;;;;;;-144.31;100.00;58022.63;5076695;28;20028;-77
2021/05/20 09:09:20;;;;;;;0.40;0.40;;;;;;;-144.31;100.00;58022.63;5077587;28;20024;-76
2021/05/20 09:11:56;;;;;;;0.40;0.40;;;;;;;-144.31;100.00;58022.63;5080844;28;20063;-76
2021/05/20 09:14:29;;;;;;;0.50;0.50;;;;;;;-144.31;100.00;58022.63;5086059;28;20028;-78
2021/05/20 09:17:19;;;;;;;0.40;0.40;;;;;;;-144.31;100.00;58022.63;5088339;28;20089;-78
2021/05/20 09:20:05;;;;;;;0.40;0.40;;;;;;;-144.31;100.00;58022.63;5084309;28;20120;-77
2021/05/20 09:22:31;;;;;;;0.30;0.30;;;;;;;-144.31;100.00;58022.63;5088547;28;20047;-77
2021/05/20 09:24:58;;;;;;;0.30;0.30;;;;;;;-144.31;100.00;58022.63;5089794;28;20498;-77
2021/05/20 09:27:34;;;;;;;0.40;0.40;;;;;;;-144.31;100.00;58022.63;5088074;28;20028;-77
2021/05/20 09:30:10;;;;;;;0.30;0.30;;;;;;;-144.31;100.00;58022.63;5087824;28;20479;-76
2021/05/20 09:32:40;;;;;;;0.30;0.30;;;;;;;-144.31;100.00;58022.63;5083510;28;20227;-78
2021/05/20 09:35:06;;;;;;;0.47;0.47;;;;;;;-144.31;100.00;58022.63;5082961;28;20035;-77
2021/05/20 09:37:34;;;;;;;0.40;0.40;;;;;;;-144.31;100.00;58022.63;5079297;28;20677;-76
2021/05/20 09:40:04;;;;;;;0.50;0.50;;;;;;;-144.31;100.00;58022.63;5084639;28;20550;-78
2021/05/20 09:42:31;;;;;;;0.40;0.40;;;;;;;-144.31;100.00;58022.63;5085722;28;20028;-77
2021/05/20 09:45:08;;;;;;;0.40;0.40;;;;;;;-144.31;100.00;58022.63;5082728;28;20028;-78
2021/05/20 09:47:33;;;;;;;0.30;0.30;;;;;;;-144.31;100.00;58022.63;5088357;28;20422;-78
2021/05/20 09:50:02;;;;;;;0.30;0.30;;;;;;;-144.31;100.00;58022.63;5098887;28;20515;-79
2021/05/20 09:52:27;;;;;;;1.10;0.40;;;;;;;-144.31;100.00;58022.63;5087791;28;20020;-78
2021/05/20 09:54:54;;;;;;;0.30;0.30;;;;;;;-144.31;100.00;58022.63;5080723;28;20089;-76
2021/05/20 09:57:31;;;;;;;0.30;0.30;;;;;;;-144.31;100.00;58022.63;5088831;28;20089;-76
2021/05/20 10:00:08;;;;;;;0.30;0.30;;;;;;;-144.31;100.00;58022.63;5085421;28;20028;-75
2021/05/20 10:02:34;;;;;;;0.45;0.45;;;;;;;-144.31;100.00;58022.63;5081621;28;20182;-76
2021/05/20 10:05:21;;;;;;;0.35;0.35;;;;;;;-144.31;100.00;58022.63;5086196;28;20122;-76
2021/05/20 10:07:47;;;;;;;0.40;0.40;;;;;;;-144.31;100.00;58022.63;5089286;28;20043;-76
2021/05/20 10:10:14;;;;;;;0.50;0.50;;;;;;;-144.31;100.00;58022.63;5084433;28;20483;-77
2021/05/20 10:12:46;;;;;;;;;;;;;;;-144.31;100.00;58022.63;5087237;28;20031;-76
2021/05/20 10:15:14;;;;;;;0.40;0.40;;;;;;;-144.31;100.00;58022.63;5086105;28;19912;-77
2021/05/20 10:17:41;;;;;;;0.40;0.40;;;;;;;-144.31;100.00;58022.63;5089659;28;20016;-78
2021/05/20 10:20:08;;;;;;;0.40;0.40;;;;;;;-144.31;100.00;58022.63;5088311;28;20536;-77
2021/05/20 10:22:34;;;;;;;0.30;0.30;;;;;;;-144.31;100.00;58022.63;5087982;28;20178;-77
2021/05/20 10:25:02;;;;;;;0.40;0.40;;;;;;;-144.31;100.00;58022.63;5091838;28;20032;-80
2021/05/20 10:27:28;;;;;;;0.40;0.40;;;;;;;-144.31;100.00;58022.63;5091084;28;20150;-79
2021/05/20 10:29:58;;;;;;;0.30;0.30;;;;;;;-144.31;100.00;58022.63;5088361;28;20028;-76
2021/05/20 10:32:24;;;;;;;0.40;0.40;;;;;;;-144.31;100.00;58022.63;5085752;28;20040;-77
2021/05/20 10:34:57;;;;;;;0.25;0.25;;;;;;;-144.31;100.00;58022.63;5087705;28;20023;-77
2021/05/20 10:37:27;;;;;;;0.20;0.20;;;;;;;-144.31;100.00;58022.63;5086121;28;20078;-77
2021/05/20 10:39:53;;;;;;;0.22;0.22;;;;;;;-144.31;100.00;58022.63;5083763;28;20461;-76
2021/05/20 10:42:42;;;;;;;0.38;0.38;;;;;;;-144.31;100.00;58022.63;5088038;28;20102;-77
2021/05/20 10:45:22;;;;;;;0.30;0.30;;;;;;;-144.31;100.00;58022.63;5059225;28;20036;-78
2021/05/20 10:48:07;;;;;;;0.30;0.30;;;;;;;-144.31;100.00;58022.63;5084321;28;20028;-79
2021/05/20 10:50:45;;;;;;;0.40;0.40;;;;;;;-144.31;100.00;58022.63;5082854;28;20076;-76
2021/05/20 10:53:11;;;;;;;0.30;0.30;;;;;;;-144.31;100.00;58022.63;5087112;28;20035;-76
2021/05/20 10:55:40;;;;;;;0.40;0.40;;;;;;;-144.31;100.00;58022.63;5083174;28;20024;-77
2021/05/20 10:58:05;;;;;;;0.32;0.32;;;;;;;-144.31;100.00;58022.63;5084629;28;20425;-76
2021/05/20 11:00:30;;;;;;;0.30;0.30;;;;;;;-144.31;100.00;58022.63;5084381;28;20036;-76
2021/05/20 11:02:58;;;;;;;0.35;0.35;;;;;;;-144.31;100.00;58022.63;5078858;28;20096;-76
2021/05/20 11:05:43;;;;;;;0.20;0.20;;;;;;;-144.31;100.00;58022.63;5083876;28;20101;-79
2021/05/20 11:08:31;;;;;;;0.30;0.30;;;;;;;-144.31;100.00;58022.63;5086375;28;20059;-78
2021/05/20 11:10:57;;;;;;;0.40;0.40;;;;;;;-144.31;100.00;58022.63;5094871;28;20609;-79
2021/05/20 11:13:38;;;;;;;0.30;0.30;;;;;;;-144.31;100.00;58022.63;5100206;28;20035;-78
2021/05/20 11:16:15;;;;;;;0.20;0.20;;;;;;;-144.31;100.00;58022.63;5078676;28;20081;-78
2021/05/20 11:18:40;;;;;;;0.30;0.30;;;;;;;-144.31;100.00;58022.63;5089410;28;20031;-79
2021/05/20 11:21:06;;;;;;;0.30;0.30;;;;;;;-144.31;100.00;58022.63;5089517;28;20028;-81